sensor_id;sensor_type;location;lat;lon;timestamp;P1;durP1;ratioP1;P2;durP2;ratioP2
21677;SDS011;11000;50.360;7.582;2022-10-16T00:00:07;4.13;;;1.20;;
21677;SDS011;11000;50.360;7.582;2022-10-16T00:02:28;2.80;;;1.00;;
21677;SDS011;11000;50.360;7.582;2022-10-16T00:04:49;1.47;;;1.20;;
21677;SDS011;11000;50.360;7.582;2022-10-16T00:07:09;5.27;;;1.60;;
21677;SDS011;11000;50.360;7.582;2022-10-16T00:09:30;6.27;;;1.80;;
21677;SDS011;11000;50.360;7.582;2022-10-16T00:11:50;2.30;;;1.60;;
21677;SDS011;11000;50.360;7.582;2022-10-16T00:14:12;3.20;;;1.70;;
21677;SDS011;11000;50.360;7.582;2022-10-16T00:16:34;3.97;;;1.70;;
21677;SDS011;11000;50.360;7.582;2022-10-16T00:18:54;2.10;;;1.30;;
21677;SDS011;11000;50.360;7.582;2022-10-16T00:21:16;1.50;;;1.40;;
21677;SDS011;11000;50.360;7.582;2022-10-16T00:23:39;4.10;;;1.63;;
21677;SDS011;11000;50.360;7.582;2022-10-16T00:26:00;2.10;;;1.50;;
21677;SDS011;11000;50.360;7.582;2022-10-16T00:28:23;5.20;;;1.20;;
21677;SDS011;11000;50.360;7.582;2022-10-16T00:30:44;4.20;;;1.30;;
21677;SDS011;11000;50.360;7.582;2022-10-16T00:33:05;1.87;;;1.20;;
21677;SDS011;11000;50.360;7.582;2022-10-16T00:35:25;2.70;;;1.27;;
21677;SDS011;11000;50.360;7.582;2022-10-16T00:37:46;3.50;;;1.10;;
21677;SDS011;11000;50.360;7.582;2022-10-16T00:40:06;3.63;;;1.30;;
21677;SDS011;11000;50.360;7.582;2022-10-16T00:42:27;8.03;;;1.30;;
21677;SDS011;11000;50.360;7.582;2022-10-16T00:44:55;5.87;;;1.97;;
21677;SDS011;11000;50.360;7.582;2022-10-16T00:47:18;1.80;;;1.10;;
21677;SDS011;11000;50.360;7.582;2022-10-16T00:49:42;4.13;;;1.30;;
21677;SDS011;11000;50.360;7.582;2022-10-16T00:52:03;1.43;;;1.33;;
21677;SDS011;11000;50.360;7.582;2022-10-16T00:54:29;0.80;;;0.80;;
21677;SDS011;11000;50.360;7.582;2022-10-16T00:56:51;2.10;;;0.77;;
21677;SDS011;11000;50.360;7.582;2022-10-16T00:59:20;3.50;;;1.10;;
21677;SDS011;11000;50.360;7.582;2022-10-16T01:01:44;4.97;;;1.23;;
21677;SDS011;11000;50.360;7.582;2022-10-16T01:04:05;2.67;;;0.83;;
21677;SDS011;11000;50.360;7.582;2022-10-16T01:06:29;4.77;;;1.20;;
21677;SDS011;11000;50.360;7.582;2022-10-16T01:09:13;1.47;;;1.00;;
21677;SDS011;11000;50.360;7.582;2022-10-16T01:11:49;7.43;;;1.03;;
21677;SDS011;11000;50.360;7.582;2022-10-16T01:14:40;2.43;;;1.17;;
21677;SDS011;11000;50.360;7.582;2022-10-16T01:17:07;8.00;;;1.10;;
21677;SDS011;11000;50.360;7.582;2022-10-16T01:28:08;1.47;;;1.20;;
21677;SDS011;11000;50.360;7.582;2022-10-16T01:30:32;5.77;;;0.90;;
21677;SDS011;11000;50.360;7.582;2022-10-16T01:32:57;3.23;;;1.00;;
21677;SDS011;11000;50.360;7.582;2022-10-16T01:35:37;4.13;;;1.00;;
21677;SDS011;11000;50.360;7.582;2022-10-16T01:40:27;1.33;;;0.83;;
21677;SDS011;11000;50.360;7.582;2022-10-16T01:42:52;1.00;;;0.97;;
21677;SDS011;11000;50.360;7.582;2022-10-16T01:45:17;3.77;;;1.10;;
21677;SDS011;11000;50.360;7.582;2022-10-16T01:47:39;1.97;;;0.90;;
21677;SDS011;11000;50.360;7.582;2022-10-16T01:50:02;1.43;;;0.90;;
21677;SDS011;11000;50.360;7.582;2022-10-16T01:52:25;2.23;;;1.10;;
21677;SDS011;11000;50.360;7.582;2022-10-16T01:54:49;4.10;;;0.70;;
21677;SDS011;11000;50.360;7.582;2022-10-16T01:57:14;2.77;;;1.50;;
21677;SDS011;11000;50.360;7.582;2022-10-16T01:59:38;2.00;;;0.80;;
21677;SDS011;11000;50.360;7.582;2022-10-16T02:02:04;4.20;;;0.93;;
21677;SDS011;11000;50.360;7.582;2022-10-16T02:04:29;1.43;;;1.00;;
21677;SDS011;11000;50.360;7.582;2022-10-16T02:06:52;2.47;;;0.77;;
21677;SDS011;11000;50.360;7.582;2022-10-16T02:09:14;5.93;;;1.60;;
21677;SDS011;11000;50.360;7.582;2022-10-16T02:11:36;2.60;;;1.00;;
21677;SDS011;11000;50.360;7.582;2022-10-16T02:13:58;1.20;;;0.80;;
21677;SDS011;11000;50.360;7.582;2022-10-16T02:16:35;3.73;;;1.00;;
21677;SDS011;11000;50.360;7.582;2022-10-16T02:18:56;2.60;;;1.10;;
21677;SDS011;11000;50.360;7.582;2022-10-16T02:21:19;1.57;;;0.87;;
21677;SDS011;11000;50.360;7.582;2022-10-16T02:23:47;5.23;;;0.90;;
21677;SDS011;11000;50.360;7.582;2022-10-16T02:26:19;4.37;;;0.90;;
21677;SDS011;11000;50.360;7.582;2022-10-16T02:28:48;1.07;;;0.90;;
21677;SDS011;11000;50.360;7.582;2022-10-16T02:31:16;0.90;;;0.90;;
21677;SDS011;11000;50.360;7.582;2022-10-16T02:33:41;4.37;;;0.90;;
21677;SDS011;11000;50.360;7.582;2022-10-16T02:36:02;2.93;;;1.07;;
21677;SDS011;11000;50.360;7.582;2022-10-16T02:38:23;2.33;;;0.93;;
21677;SDS011;11000;50.360;7.582;2022-10-16T02:40:45;4.17;;;1.20;;
21677;SDS011;11000;50.360;7.582;2022-10-16T02:43:06;1.30;;;1.20;;
21677;SDS011;11000;50.360;7.582;2022-10-16T02:45:26;1.70;;;1.30;;
21677;SDS011;11000;50.360;7.582;2022-10-16T02:47:47;2.03;;;1.30;;
21677;SDS011;11000;50.360;7.582;2022-10-16T02:50:08;6.33;;;1.13;;
21677;SDS011;11000;50.360;7.582;2022-10-16T02:52:29;5.10;;;1.40;;
21677;SDS011;11000;50.360;7.582;2022-10-16T02:54:49;3.67;;;1.20;;
21677;SDS011;11000;50.360;7.582;2022-10-16T02:57:10;1.73;;;1.00;;
21677;SDS011;11000;50.360;7.582;2022-10-16T02:59:31;1.40;;;1.30;;
21677;SDS011;11000;50.360;7.582;2022-10-16T03:01:52;2.93;;;1.20;;
21677;SDS011;11000;50.360;7.582;2022-10-16T03:04:12;3.20;;;1.23;;
21677;SDS011;11000;50.360;7.582;2022-10-16T03:06:33;2.43;;;1.40;;
21677;SDS011;11000;50.360;7.582;2022-10-16T03:08:54;3.90;;;1.10;;
21677;SDS011;11000;50.360;7.582;2022-10-16T03:11:14;4.10;;;1.27;;
21677;SDS011;11000;50.360;7.582;2022-10-16T03:13:35;4.73;;;1.40;;
21677;SDS011;11000;50.360;7.582;2022-10-16T03:15:56;4.20;;;1.53;;
21677;SDS011;11000;50.360;7.582;2022-10-16T03:18:16;1.73;;;0.90;;
21677;SDS011;11000;50.360;7.582;2022-10-16T03:20:37;5.60;;;1.50;;
21677;SDS011;11000;50.360;7.582;2022-10-16T03:22:57;4.53;;;1.13;;
21677;SDS011;11000;50.360;7.582;2022-10-16T03:25:18;2.73;;;1.13;;
21677;SDS011;11000;50.360;7.582;2022-10-16T03:27:38;1.80;;;1.17;;
21677;SDS011;11000;50.360;7.582;2022-10-16T03:29:59;3.40;;;1.03;;
21677;SDS011;11000;50.360;7.582;2022-10-16T03:32:19;2.20;;;1.20;;
21677;SDS011;11000;50.360;7.582;2022-10-16T03:34:40;2.60;;;1.17;;
21677;SDS011;11000;50.360;7.582;2022-10-16T03:37:00;2.27;;;1.10;;
21677;SDS011;11000;50.360;7.582;2022-10-16T03:39:21;2.20;;;1.10;;
21677;SDS011;11000;50.360;7.582;2022-10-16T03:41:41;2.50;;;1.00;;
21677;SDS011;11000;50.360;7.582;2022-10-16T03:44:02;2.70;;;1.00;;
21677;SDS011;11000;50.360;7.582;2022-10-16T03:46:23;2.40;;;1.00;;
21677;SDS011;11000;50.360;7.582;2022-10-16T03:48:43;2.20;;;1.10;;
21677;SDS011;11000;50.360;7.582;2022-10-16T03:51:04;3.50;;;1.20;;
21677;SDS011;11000;50.360;7.582;2022-10-16T03:53:25;2.20;;;1.20;;
21677;SDS011;11000;50.360;7.582;2022-10-16T03:55:45;1.47;;;1.20;;
21677;SDS011;11000;50.360;7.582;2022-10-16T03:58:06;3.43;;;1.23;;
21677;SDS011;11000;50.360;7.582;2022-10-16T04:00:26;1.60;;;1.00;;
21677;SDS011;11000;50.360;7.582;2022-10-16T04:02:47;3.20;;;1.40;;
21677;SDS011;11000;50.360;7.582;2022-10-16T04:05:07;2.90;;;0.90;;
21677;SDS011;11000;50.360;7.582;2022-10-16T04:07:28;3.77;;;1.10;;
21677;SDS011;11000;50.360;7.582;2022-10-16T04:09:49;2.00;;;0.90;;
21677;SDS011;11000;50.360;7.582;2022-10-16T04:12:11;2.60;;;1.20;;
21677;SDS011;11000;50.360;7.582;2022-10-16T04:14:32;2.67;;;1.00;;
21677;SDS011;11000;50.360;7.582;2022-10-16T04:16:53;3.20;;;0.90;;
21677;SDS011;11000;50.360;7.582;2022-10-16T04:19:13;1.03;;;0.80;;
21677;SDS011;11000;50.360;7.582;2022-10-16T04:21:34;2.73;;;0.87;;
21677;SDS011;11000;50.360;7.582;2022-10-16T04:23:54;1.30;;;0.93;;
21677;SDS011;11000;50.360;7.582;2022-10-16T04:26:15;1.30;;;1.00;;
21677;SDS011;11000;50.360;7.582;2022-10-16T04:28:35;2.30;;;0.90;;
21677;SDS011;11000;50.360;7.582;2022-10-16T04:30:56;1.47;;;0.80;;
21677;SDS011;11000;50.360;7.582;2022-10-16T04:33:16;4.37;;;1.00;;
21677;SDS011;11000;50.360;7.582;2022-10-16T04:35:37;3.93;;;1.07;;
21677;SDS011;11000;50.360;7.582;2022-10-16T04:37:58;2.53;;;0.90;;
21677;SDS011;11000;50.360;7.582;2022-10-16T04:40:18;2.50;;;0.93;;
21677;SDS011;11000;50.360;7.582;2022-10-16T04:42:39;5.10;;;1.00;;
21677;SDS011;11000;50.360;7.582;2022-10-16T04:45:00;2.93;;;1.10;;
21677;SDS011;11000;50.360;7.582;2022-10-16T04:47:21;2.67;;;0.90;;
21677;SDS011;11000;50.360;7.582;2022-10-16T04:49:41;1.93;;;0.90;;
21677;SDS011;11000;50.360;7.582;2022-10-16T04:52:02;1.70;;;1.03;;
21677;SDS011;11000;50.360;7.582;2022-10-16T04:54:23;4.03;;;1.27;;
21677;SDS011;11000;50.360;7.582;2022-10-16T04:56:43;1.73;;;0.90;;
21677;SDS011;11000;50.360;7.582;2022-10-16T04:59:07;1.13;;;0.90;;
21677;SDS011;11000;50.360;7.582;2022-10-16T05:01:27;3.47;;;1.30;;
21677;SDS011;11000;50.360;7.582;2022-10-16T05:03:48;4.70;;;1.00;;
21677;SDS011;11000;50.360;7.582;2022-10-16T05:06:08;2.23;;;1.10;;
21677;SDS011;11000;50.360;7.582;2022-10-16T05:08:29;1.57;;;1.03;;
21677;SDS011;11000;50.360;7.582;2022-10-16T05:10:49;2.80;;;1.00;;
21677;SDS011;11000;50.360;7.582;2022-10-16T05:13:10;1.10;;;0.80;;
21677;SDS011;11000;50.360;7.582;2022-10-16T05:15:31;2.77;;;0.90;;
21677;SDS011;11000;50.360;7.582;2022-10-16T05:17:52;3.67;;;0.97;;
21677;SDS011;11000;50.360;7.582;2022-10-16T05:20:13;2.97;;;0.90;;
21677;SDS011;11000;50.360;7.582;2022-10-16T05:22:34;1.77;;;1.23;;
21677;SDS011;11000;50.360;7.582;2022-10-16T05:24:54;3.20;;;1.10;;
21677;SDS011;11000;50.360;7.582;2022-10-16T05:27:15;3.67;;;1.30;;
21677;SDS011;11000;50.360;7.582;2022-10-16T05:29:39;2.37;;;0.97;;
21677;SDS011;11000;50.360;7.582;2022-10-16T05:31:59;2.17;;;1.20;;
21677;SDS011;11000;50.360;7.582;2022-10-16T05:34:20;2.63;;;0.93;;
21677;SDS011;11000;50.360;7.582;2022-10-16T05:36:41;3.73;;;1.20;;
21677;SDS011;11000;50.360;7.582;2022-10-16T05:39:02;5.73;;;1.20;;
21677;SDS011;11000;50.360;7.582;2022-10-16T05:41:23;2.97;;;1.20;;
21677;SDS011;11000;50.360;7.582;2022-10-16T05:43:45;2.77;;;1.30;;
21677;SDS011;11000;50.360;7.582;2022-10-16T05:46:06;3.13;;;1.20;;
21677;SDS011;11000;50.360;7.582;2022-10-16T05:48:27;2.17;;;1.10;;
21677;SDS011;11000;50.360;7.582;2022-10-16T05:50:48;3.13;;;0.90;;
21677;SDS011;11000;50.360;7.582;2022-10-16T05:53:08;1.70;;;1.03;;
21677;SDS011;11000;50.360;7.582;2022-10-16T05:55:29;5.00;;;0.90;;
21677;SDS011;11000;50.360;7.582;2022-10-16T05:57:49;6.63;;;1.20;;
21677;SDS011;11000;50.360;7.582;2022-10-16T06:00:10;3.50;;;1.13;;
21677;SDS011;11000;50.360;7.582;2022-10-16T06:02:31;1.37;;;0.90;;
21677;SDS011;11000;50.360;7.582;2022-10-16T06:04:51;1.40;;;1.20;;
21677;SDS011;11000;50.360;7.582;2022-10-16T06:07:13;1.07;;;0.80;;
21677;SDS011;11000;50.360;7.582;2022-10-16T06:09:34;2.80;;;1.00;;
21677;SDS011;11000;50.360;7.582;2022-10-16T06:11:54;3.00;;;1.00;;
21677;SDS011;11000;50.360;7.582;2022-10-16T06:14:15;1.20;;;1.00;;
21677;SDS011;11000;50.360;7.582;2022-10-16T06:16:36;2.47;;;1.03;;
21677;SDS011;11000;50.360;7.582;2022-10-16T06:18:57;2.47;;;1.13;;
21677;SDS011;11000;50.360;7.582;2022-10-16T06:21:20;3.70;;;1.30;;
21677;SDS011;11000;50.360;7.582;2022-10-16T06:23:41;1.40;;;1.00;;
21677;SDS011;11000;50.360;7.582;2022-10-16T06:26:09;2.10;;;1.10;;
21677;SDS011;11000;50.360;7.582;2022-10-16T06:28:31;4.00;;;1.17;;
21677;SDS011;11000;50.360;7.582;2022-10-16T06:30:58;3.97;;;1.20;;
21677;SDS011;11000;50.360;7.582;2022-10-16T06:33:19;2.97;;;1.10;;
21677;SDS011;11000;50.360;7.582;2022-10-16T06:35:40;3.67;;;1.00;;
21677;SDS011;11000;50.360;7.582;2022-10-16T06:38:00;2.27;;;0.80;;
21677;SDS011;11000;50.360;7.582;2022-10-16T06:40:20;4.37;;;1.07;;
21677;SDS011;11000;50.360;7.582;2022-10-16T06:42:41;1.33;;;0.97;;
21677;SDS011;11000;50.360;7.582;2022-10-16T06:45:02;3.90;;;0.77;;
21677;SDS011;11000;50.360;7.582;2022-10-16T06:47:23;4.73;;;1.23;;
21677;SDS011;11000;50.360;7.582;2022-10-16T06:49:43;1.40;;;1.10;;
21677;SDS011;11000;50.360;7.582;2022-10-16T06:52:04;1.87;;;1.00;;
21677;SDS011;11000;50.360;7.582;2022-10-16T06:54:24;2.10;;;1.40;;
21677;SDS011;11000;50.360;7.582;2022-10-16T06:56:45;2.67;;;1.00;;
21677;SDS011;11000;50.360;7.582;2022-10-16T06:59:06;2.67;;;1.10;;
21677;SDS011;11000;50.360;7.582;2022-10-16T07:01:26;4.83;;;1.50;;
21677;SDS011;11000;50.360;7.582;2022-10-16T07:03:48;2.10;;;1.00;;
21677;SDS011;11000;50.360;7.582;2022-10-16T07:06:10;2.43;;;1.20;;
21677;SDS011;11000;50.360;7.582;2022-10-16T07:08:35;3.07;;;1.47;;
21677;SDS011;11000;50.360;7.582;2022-10-16T07:10:58;6.57;;;1.20;;
21677;SDS011;11000;50.360;7.582;2022-10-16T07:13:19;3.30;;;1.20;;
21677;SDS011;11000;50.360;7.582;2022-10-16T07:15:40;1.57;;;1.00;;
21677;SDS011;11000;50.360;7.582;2022-10-16T07:18:01;2.50;;;0.93;;
21677;SDS011;11000;50.360;7.582;2022-10-16T07:20:21;1.10;;;1.00;;
21677;SDS011;11000;50.360;7.582;2022-10-16T07:22:42;1.53;;;0.80;;
21677;SDS011;11000;50.360;7.582;2022-10-16T07:25:03;1.60;;;0.60;;
21677;SDS011;11000;50.360;7.582;2022-10-16T07:27:23;0.70;;;0.70;;
21677;SDS011;11000;50.360;7.582;2022-10-16T07:29:44;1.73;;;1.10;;
21677;SDS011;11000;50.360;7.582;2022-10-16T07:32:04;2.37;;;0.80;;
21677;SDS011;11000;50.360;7.582;2022-10-16T07:34:25;2.33;;;1.00;;
21677;SDS011;11000;50.360;7.582;2022-10-16T07:36:49;2.10;;;1.03;;
21677;SDS011;11000;50.360;7.582;2022-10-16T07:39:10;2.90;;;0.90;;
21677;SDS011;11000;50.360;7.582;2022-10-16T07:41:31;1.30;;;0.97;;
21677;SDS011;11000;50.360;7.582;2022-10-16T07:43:56;2.03;;;0.87;;
21677;SDS011;11000;50.360;7.582;2022-10-16T07:46:20;1.27;;;1.07;;
21677;SDS011;11000;50.360;7.582;2022-10-16T07:48:42;5.17;;;1.37;;
21677;SDS011;11000;50.360;7.582;2022-10-16T07:51:05;2.90;;;0.80;;
21677;SDS011;11000;50.360;7.582;2022-10-16T07:53:27;1.17;;;0.80;;
21677;SDS011;11000;50.360;7.582;2022-10-16T07:55:47;0.70;;;0.63;;
21677;SDS011;11000;50.360;7.582;2022-10-16T07:58:08;1.13;;;0.87;;
21677;SDS011;11000;50.360;7.582;2022-10-16T08:00:28;3.70;;;0.87;;
21677;SDS011;11000;50.360;7.582;2022-10-16T08:02:49;0.70;;;0.70;;
21677;SDS011;11000;50.360;7.582;2022-10-16T08:05:10;4.20;;;0.80;;
21677;SDS011;11000;50.360;7.582;2022-10-16T08:07:30;1.17;;;0.80;;
21677;SDS011;11000;50.360;7.582;2022-10-16T08:09:51;1.13;;;0.70;;
21677;SDS011;11000;50.360;7.582;2022-10-16T08:12:12;1.33;;;0.77;;
21677;SDS011;11000;50.360;7.582;2022-10-16T08:14:33;2.27;;;0.50;;
21677;SDS011;11000;50.360;7.582;2022-10-16T08:16:53;0.93;;;0.50;;
21677;SDS011;11000;50.360;7.582;2022-10-16T08:19:14;2.53;;;0.90;;
21677;SDS011;11000;50.360;7.582;2022-10-16T08:21:35;3.27;;;1.30;;
21677;SDS011;11000;50.360;7.582;2022-10-16T08:23:56;1.20;;;0.70;;
21677;SDS011;11000;50.360;7.582;2022-10-16T08:26:16;4.07;;;1.00;;
21677;SDS011;11000;50.360;7.582;2022-10-16T08:28:37;1.80;;;0.67;;
21677;SDS011;11000;50.360;7.582;2022-10-16T08:31:05;2.93;;;0.97;;
21677;SDS011;11000;50.360;7.582;2022-10-16T08:33:30;2.07;;;0.60;;
21677;SDS011;11000;50.360;7.582;2022-10-16T08:35:51;0.43;;;0.43;;
21677;SDS011;11000;50.360;7.582;2022-10-16T08:38:13;4.93;;;0.70;;
21677;SDS011;11000;50.360;7.582;2022-10-16T08:40:34;0.73;;;0.60;;
21677;SDS011;11000;50.360;7.582;2022-10-16T08:50:54;2.70;;;0.53;;
21677;SDS011;11000;50.360;7.582;2022-10-16T08:53:16;1.87;;;0.60;;
21677;SDS011;11000;50.360;7.582;2022-10-16T08:55:43;1.67;;;0.60;;
21677;SDS011;11000;50.360;7.582;2022-10-16T08:58:14;1.70;;;0.60;;
21677;SDS011;11000;50.360;7.582;2022-10-16T09:00:39;0.97;;;0.87;;
21677;SDS011;11000;50.360;7.582;2022-10-16T09:03:06;1.37;;;0.60;;
21677;SDS011;11000;50.360;7.582;2022-10-16T09:11:38;1.93;;;0.50;;
21677;SDS011;11000;50.360;7.582;2022-10-16T09:16:57;1.27;;;0.50;;
21677;SDS011;11000;50.360;7.582;2022-10-16T09:19:44;0.93;;;0.30;;
21677;SDS011;11000;50.360;7.582;2022-10-16T09:22:12;1.73;;;0.63;;
21677;SDS011;11000;50.360;7.582;2022-10-16T09:24:35;2.93;;;0.67;;
21677;SDS011;11000;50.360;7.582;2022-10-16T09:26:56;0.83;;;0.50;;
21677;SDS011;11000;50.360;7.582;2022-10-16T09:29:19;0.73;;;0.40;;
21677;SDS011;11000;50.360;7.582;2022-10-16T09:31:41;0.67;;;0.50;;
21677;SDS011;11000;50.360;7.582;2022-10-16T09:34:03;0.47;;;0.37;;
21677;SDS011;11000;50.360;7.582;2022-10-16T09:36:27;0.63;;;0.47;;
21677;SDS011;11000;50.360;7.582;2022-10-16T09:38:49;2.50;;;0.70;;
21677;SDS011;11000;50.360;7.582;2022-10-16T09:41:13;1.60;;;0.57;;
21677;SDS011;11000;50.360;7.582;2022-10-16T09:43:41;3.47;;;0.70;;
21677;SDS011;11000;50.360;7.582;2022-10-16T09:48:58;2.77;;;0.90;;
21677;SDS011;11000;50.360;7.582;2022-10-16T09:51:25;1.37;;;0.70;;
21677;SDS011;11000;50.360;7.582;2022-10-16T09:53:57;2.50;;;0.70;;
21677;SDS011;11000;50.360;7.582;2022-10-16T09:56:22;4.37;;;0.40;;
21677;SDS011;11000;50.360;7.582;2022-10-16T09:58:49;2.60;;;0.40;;
21677;SDS011;11000;50.360;7.582;2022-10-16T10:01:12;0.30;;;0.30;;
21677;SDS011;11000;50.360;7.582;2022-10-16T10:03:39;1.23;;;0.40;;
21677;SDS011;11000;50.360;7.582;2022-10-16T10:06:22;1.70;;;0.40;;
21677;SDS011;11000;50.360;7.582;2022-10-16T10:08:56;1.67;;;0.37;;
21677;SDS011;11000;50.360;7.582;2022-10-16T10:11:16;2.17;;;0.30;;
21677;SDS011;11000;50.360;7.582;2022-10-16T10:13:37;1.40;;;0.40;;
21677;SDS011;11000;50.360;7.582;2022-10-16T10:15:57;1.10;;;0.50;;
21677;SDS011;11000;50.360;7.582;2022-10-16T10:18:19;0.30;;;0.20;;
21677;SDS011;11000;50.360;7.582;2022-10-16T10:20:42;0.70;;;0.30;;
21677;SDS011;11000;50.360;7.582;2022-10-16T10:23:25;1.63;;;0.37;;
21677;SDS011;11000;50.360;7.582;2022-10-16T10:30:45;1.50;;;0.60;;
21677;SDS011;11000;50.360;7.582;2022-10-16T10:36:23;0.40;;;0.20;;
21677;SDS011;11000;50.360;7.582;2022-10-16T10:44:37;3.13;;;0.30;;
21677;SDS011;11000;50.360;7.582;2022-10-16T10:53:18;0.40;;;0.30;;
21677;SDS011;11000;50.360;7.582;2022-10-16T11:02:11;0.73;;;0.50;;
21677;SDS011;11000;50.360;7.582;2022-10-16T11:04:39;0.50;;;0.30;;
21677;SDS011;11000;50.360;7.582;2022-10-16T11:07:09;0.63;;;0.30;;
21677;SDS011;11000;50.360;7.582;2022-10-16T11:09:41;0.30;;;0.30;;
21677;SDS011;11000;50.360;7.582;2022-10-16T11:12:12;0.50;;;0.40;;
21677;SDS011;11000;50.360;7.582;2022-10-16T11:14:40;0.40;;;0.30;;
21677;SDS011;11000;50.360;7.582;2022-10-16T11:17:10;0.73;;;0.30;;
21677;SDS011;11000;50.360;7.582;2022-10-16T11:19:46;0.77;;;0.40;;
21677;SDS011;11000;50.360;7.582;2022-10-16T11:24:55;0.50;;;0.30;;
21677;SDS011;11000;50.360;7.582;2022-10-16T11:27:21;0.57;;;0.43;;
21677;SDS011;11000;50.360;7.582;2022-10-16T11:29:57;1.50;;;0.47;;
21677;SDS011;11000;50.360;7.582;2022-10-16T11:32:22;1.57;;;0.20;;
21677;SDS011;11000;50.360;7.582;2022-10-16T11:34:48;1.00;;;0.20;;
21677;SDS011;11000;50.360;7.582;2022-10-16T11:37:14;5.53;;;0.60;;
21677;SDS011;11000;50.360;7.582;2022-10-16T11:39:39;0.43;;;0.40;;
21677;SDS011;11000;50.360;7.582;2022-10-16T11:42:08;1.57;;;0.30;;
21677;SDS011;11000;50.360;7.582;2022-10-16T11:47:35;0.67;;;0.47;;
21677;SDS011;11000;50.360;7.582;2022-10-16T11:50:04;1.17;;;0.50;;
21677;SDS011;11000;50.360;7.582;2022-10-16T11:52:43;0.70;;;0.30;;
21677;SDS011;11000;50.360;7.582;2022-10-16T11:55:16;0.87;;;0.40;;
21677;SDS011;11000;50.360;7.582;2022-10-16T11:57:44;1.60;;;0.63;;
21677;SDS011;11000;50.360;7.582;2022-10-16T12:00:16;2.20;;;0.60;;
21677;SDS011;11000;50.360;7.582;2022-10-16T12:05:24;0.40;;;0.20;;
21677;SDS011;11000;50.360;7.582;2022-10-16T12:07:48;1.03;;;0.30;;
21677;SDS011;11000;50.360;7.582;2022-10-16T12:10:27;0.63;;;0.33;;
21677;SDS011;11000;50.360;7.582;2022-10-16T12:12:51;0.27;;;0.27;;
21677;SDS011;11000;50.360;7.582;2022-10-16T12:17:46;0.67;;;0.27;;
21677;SDS011;11000;50.360;7.582;2022-10-16T12:22:33;1.80;;;0.23;;
21677;SDS011;11000;50.360;7.582;2022-10-16T12:24:53;0.77;;;0.30;;
21677;SDS011;11000;50.360;7.582;2022-10-16T12:29:48;0.30;;;0.30;;
21677;SDS011;11000;50.360;7.582;2022-10-16T12:32:30;0.63;;;0.20;;
21677;SDS011;11000;50.360;7.582;2022-10-16T12:34:53;0.43;;;0.20;;
21677;SDS011;11000;50.360;7.582;2022-10-16T12:37:21;2.03;;;0.40;;
21677;SDS011;11000;50.360;7.582;2022-10-16T12:39:56;1.40;;;0.33;;
21677;SDS011;11000;50.360;7.582;2022-10-16T12:44:47;2.87;;;0.43;;
21677;SDS011;11000;50.360;7.582;2022-10-16T12:47:18;1.10;;;0.27;;
21677;SDS011;11000;50.360;7.582;2022-10-16T12:49:53;0.40;;;0.30;;
21677;SDS011;11000;50.360;7.582;2022-10-16T12:54:57;0.20;;;0.20;;
21677;SDS011;11000;50.360;7.582;2022-10-16T12:57:30;1.10;;;0.40;;
21677;SDS011;11000;50.360;7.582;2022-10-16T13:05:54;0.53;;;0.20;;
21677;SDS011;11000;50.360;7.582;2022-10-16T13:17:16;0.97;;;0.50;;
21677;SDS011;11000;50.360;7.582;2022-10-16T13:28:11;0.20;;;0.20;;
21677;SDS011;11000;50.360;7.582;2022-10-16T13:30:35;0.30;;;0.30;;
21677;SDS011;11000;50.360;7.582;2022-10-16T13:33:02;1.37;;;0.40;;
21677;SDS011;11000;50.360;7.582;2022-10-16T13:35:30;0.50;;;0.20;;
21677;SDS011;11000;50.360;7.582;2022-10-16T13:38:02;1.03;;;0.33;;
21677;SDS011;11000;50.360;7.582;2022-10-16T13:41:02;0.20;;;0.20;;
21677;SDS011;11000;50.360;7.582;2022-10-16T13:43:35;0.43;;;0.37;;
21677;SDS011;11000;50.360;7.582;2022-10-16T13:46:11;0.73;;;0.50;;
21677;SDS011;11000;50.360;7.582;2022-10-16T13:48:34;0.60;;;0.40;;
21677;SDS011;11000;50.360;7.582;2022-10-16T13:51:01;0.70;;;0.40;;
21677;SDS011;11000;50.360;7.582;2022-10-16T13:53:36;0.40;;;0.30;;
21677;SDS011;11000;50.360;7.582;2022-10-16T13:55:57;0.40;;;0.40;;
21677;SDS011;11000;50.360;7.582;2022-10-16T13:58:20;0.83;;;0.37;;
21677;SDS011;11000;50.360;7.582;2022-10-16T14:00:51;0.47;;;0.40;;
21677;SDS011;11000;50.360;7.582;2022-10-16T14:03:15;0.63;;;0.50;;
21677;SDS011;11000;50.360;7.582;2022-10-16T14:05:47;0.93;;;0.43;;
21677;SDS011;11000;50.360;7.582;2022-10-16T14:08:16;0.70;;;0.40;;
21677;SDS011;11000;50.360;7.582;2022-10-16T14:10:37;0.40;;;0.40;;
21677;SDS011;11000;50.360;7.582;2022-10-16T14:12:59;0.50;;;0.40;;
21677;SDS011;11000;50.360;7.582;2022-10-16T14:15:22;0.37;;;0.37;;
21677;SDS011;11000;50.360;7.582;2022-10-16T14:17:43;0.67;;;0.57;;
21677;SDS011;11000;50.360;7.582;2022-10-16T14:20:05;0.60;;;0.50;;
21677;SDS011;11000;50.360;7.582;2022-10-16T14:22:36;0.63;;;0.63;;
21677;SDS011;11000;50.360;7.582;2022-10-16T14:25:00;2.00;;;0.50;;
21677;SDS011;11000;50.360;7.582;2022-10-16T14:27:24;3.00;;;0.60;;
21677;SDS011;11000;50.360;7.582;2022-10-16T14:30:01;0.87;;;0.60;;
21677;SDS011;11000;50.360;7.582;2022-10-16T14:32:42;1.53;;;0.60;;
21677;SDS011;11000;50.360;7.582;2022-10-16T14:35:23;3.80;;;0.50;;
21677;SDS011;11000;50.360;7.582;2022-10-16T14:37:46;0.50;;;0.40;;
21677;SDS011;11000;50.360;7.582;2022-10-16T14:40:13;0.50;;;0.50;;
21677;SDS011;11000;50.360;7.582;2022-10-16T14:42:35;0.70;;;0.60;;
21677;SDS011;11000;50.360;7.582;2022-10-16T14:44:55;0.90;;;0.53;;
21677;SDS011;11000;50.360;7.582;2022-10-16T14:47:17;1.37;;;0.40;;
21677;SDS011;11000;50.360;7.582;2022-10-16T14:49:44;0.93;;;0.53;;
21677;SDS011;11000;50.360;7.582;2022-10-16T14:52:08;1.23;;;0.60;;
21677;SDS011;11000;50.360;7.582;2022-10-16T14:54:32;0.50;;;0.50;;
21677;SDS011;11000;50.360;7.582;2022-10-16T14:56:54;2.10;;;0.70;;
21677;SDS011;11000;50.360;7.582;2022-10-16T14:59:19;0.40;;;0.40;;
21677;SDS011;11000;50.360;7.582;2022-10-16T15:01:48;0.67;;;0.50;;
21677;SDS011;11000;50.360;7.582;2022-10-16T15:04:09;0.63;;;0.57;;
21677;SDS011;11000;50.360;7.582;2022-10-16T15:06:31;0.50;;;0.50;;
21677;SDS011;11000;50.360;7.582;2022-10-16T15:08:52;1.70;;;0.43;;
21677;SDS011;11000;50.360;7.582;2022-10-16T15:11:13;1.40;;;0.60;;
21677;SDS011;11000;50.360;7.582;2022-10-16T15:13:36;0.77;;;0.60;;
21677;SDS011;11000;50.360;7.582;2022-10-16T15:15:56;0.40;;;0.40;;
21677;SDS011;11000;50.360;7.582;2022-10-16T15:18:18;1.77;;;0.53;;
21677;SDS011;11000;50.360;7.582;2022-10-16T15:20:42;1.37;;;0.50;;
21677;SDS011;11000;50.360;7.582;2022-10-16T15:23:04;1.00;;;0.60;;
21677;SDS011;11000;50.360;7.582;2022-10-16T15:27:56;0.50;;;0.50;;
21677;SDS011;11000;50.360;7.582;2022-10-16T15:30:17;1.33;;;0.77;;
21677;SDS011;11000;50.360;7.582;2022-10-16T15:32:37;1.77;;;0.60;;
21677;SDS011;11000;50.360;7.582;2022-10-16T15:34:58;2.83;;;0.90;;
21677;SDS011;11000;50.360;7.582;2022-10-16T15:37:19;2.17;;;0.50;;
21677;SDS011;11000;50.360;7.582;2022-10-16T15:39:39;3.80;;;0.60;;
21677;SDS011;11000;50.360;7.582;2022-10-16T15:42:00;1.00;;;0.70;;
21677;SDS011;11000;50.360;7.582;2022-10-16T15:44:20;1.00;;;0.43;;
21677;SDS011;11000;50.360;7.582;2022-10-16T15:46:46;1.77;;;0.60;;
21677;SDS011;11000;50.360;7.582;2022-10-16T15:49:07;3.30;;;0.70;;
21677;SDS011;11000;50.360;7.582;2022-10-16T15:51:29;0.90;;;0.57;;
21677;SDS011;11000;50.360;7.582;2022-10-16T15:53:52;1.77;;;0.90;;
21677;SDS011;11000;50.360;7.582;2022-10-16T15:56:14;1.30;;;0.50;;
21677;SDS011;11000;50.360;7.582;2022-10-16T15:58:34;2.13;;;0.90;;
21677;SDS011;11000;50.360;7.582;2022-10-16T16:00:58;0.57;;;0.40;;
21677;SDS011;11000;50.360;7.582;2022-10-16T16:03:23;0.50;;;0.50;;
21677;SDS011;11000;50.360;7.582;2022-10-16T16:05:44;2.43;;;0.77;;
21677;SDS011;11000;50.360;7.582;2022-10-16T16:08:04;2.53;;;0.60;;
21677;SDS011;11000;50.360;7.582;2022-10-16T16:10:25;1.53;;;0.60;;